createdAt,value
2022-08-10T00:01:53.538Z,21.59
2022-08-10T00:04:22.703Z,21.56
2022-08-10T00:06:51.891Z,21.56
2022-08-10T00:09:18.444Z,21.56
2022-08-10T00:11:45.000Z,21.54
2022-08-10T00:14:11.467Z,21.50
2022-08-10T00:16:37.912Z,21.45
2022-08-10T00:19:04.462Z,21.42
2022-08-10T00:21:30.903Z,21.38
2022-08-10T00:23:57.384Z,21.37
2022-08-10T00:26:23.888Z,21.36
2022-08-10T00:28:50.373Z,21.32
2022-08-10T00:31:16.964Z,21.32
2022-08-10T00:33:43.444Z,21.31
2022-08-10T00:36:10.105Z,21.31
2022-08-10T00:38:37.598Z,21.25
2022-08-10T00:41:04.343Z,21.25
2022-08-10T00:43:30.919Z,21.22
2022-08-10T00:45:58.813Z,21.21
2022-08-10T00:48:30.131Z,21.13
2022-08-10T00:50:58.993Z,21.09
2022-08-10T00:53:27.565Z,21.07
2022-08-10T00:57:14.095Z,21.07
2022-08-10T00:58:41.065Z,21.07
2022-08-10T01:01:07.627Z,21.09
2022-08-10T01:04:36.594Z,21.05
2022-08-10T01:06:52.587Z,21.02
2022-08-10T01:09:32.091Z,20.99
2022-08-10T01:12:39.650Z,20.98
2022-08-10T01:15:22.660Z,20.92
2022-08-10T01:17:52.064Z,20.91
2022-08-10T01:20:44.711Z,20.89
2022-08-10T01:23:26.046Z,20.87
2022-08-10T01:26:31.355Z,20.84
2022-08-10T01:29:29.386Z,20.82
2022-08-10T01:32:02.129Z,20.78
2022-08-10T01:34:36.715Z,20.76
2022-08-10T01:37:11.866Z,20.71
2022-08-10T01:39:42.101Z,20.68
2022-08-10T01:42:13.074Z,20.67
2022-08-10T01:44:45.433Z,20.67
2022-08-10T01:47:35.009Z,20.64
2022-08-10T01:50:12.090Z,20.64
2022-08-10T01:52:43.066Z,20.62
2022-08-10T01:55:12.355Z,20.59
2022-08-10T01:57:40.934Z,20.54
2022-08-10T02:00:08.829Z,20.51
2022-08-10T02:02:37.662Z,20.50
2022-08-10T02:05:06.747Z,20.47
2022-08-10T02:07:37.889Z,20.45
2022-08-10T02:10:10.821Z,20.44
2022-08-10T02:12:39.032Z,20.44
2022-08-10T02:15:13.047Z,20.41
2022-08-10T02:18:00.388Z,20.38
2022-08-10T02:20:34.980Z,20.36
2022-08-10T02:23:12.729Z,20.32
2022-08-10T02:25:43.678Z,20.34
2022-08-10T02:28:27.496Z,20.29
2022-08-10T02:31:01.651Z,20.27
2022-08-10T02:33:30.313Z,20.24
2022-08-10T02:36:00.447Z,20.20
2022-08-10T02:38:58.408Z,20.13
2022-08-10T02:45:12.323Z,20.12
2022-08-10T02:45:24.229Z,20.10
2022-08-10T02:47:51.307Z,20.04
2022-08-10T02:50:21.785Z,20.02
2022-08-10T02:52:53.799Z,20.02
2022-08-10T02:55:32.737Z,20.00
2022-08-10T02:58:16.923Z,20.02
2022-08-10T03:00:49.655Z,19.96
2022-08-10T03:03:26.226Z,19.91
2022-08-10T03:05:59.794Z,19.89
2022-08-10T03:08:30.863Z,19.86
2022-08-10T03:11:01.244Z,19.80
2022-08-10T03:13:30.906Z,19.69
2022-08-10T03:16:00.187Z,19.67
2022-08-10T03:18:27.046Z,19.62
2022-08-10T03:20:55.771Z,19.63
2022-08-10T03:23:24.797Z,19.52
2022-08-10T03:25:54.885Z,19.47
2022-08-10T03:28:23.935Z,19.38
2022-08-10T03:30:51.075Z,19.34
2022-08-10T03:33:20.291Z,19.21
2022-08-10T03:36:42.732Z,19.17
2022-08-10T03:38:34.437Z,19.13
2022-08-10T03:41:03.969Z,19.11
2022-08-10T03:43:31.659Z,19.01
2022-08-10T03:46:01.001Z,18.95
2022-08-10T03:48:32.261Z,18.96
2022-08-10T03:51:17.377Z,19.01
2022-08-10T03:54:04.336Z,18.92
2022-08-10T03:56:33.116Z,18.92
2022-08-10T03:59:01.272Z,18.78
2022-08-10T04:02:46.822Z,18.72
2022-08-10T04:04:22.479Z,18.79
2022-08-10T04:06:54.462Z,18.86
2022-08-10T04:09:23.107Z,18.90
2022-08-10T04:11:49.651Z,18.95
2022-08-10T04:14:38.380Z,19.01
2022-08-10T04:17:02.727Z,19.04
2022-08-10T04:19:35.536Z,19.07
2022-08-10T04:22:13.725Z,19.10
2022-08-10T04:24:41.856Z,19.13
2022-08-10T04:27:09.474Z,19.10
2022-08-10T04:29:36.423Z,19.17
2022-08-10T04:32:04.536Z,19.18
2022-08-10T04:34:32.406Z,19.18
2022-08-10T04:37:08.777Z,19.16
2022-08-10T04:39:36.417Z,19.09
2022-08-10T04:42:03.628Z,19.01
2022-08-10T04:44:30.446Z,19.03
2022-08-10T04:46:59.267Z,19.03
2022-08-10T04:49:54.574Z,19.04
2022-08-10T04:52:13.658Z,19.07
2022-08-10T04:54:40.131Z,19.09
2022-08-10T04:57:08.848Z,19.09
2022-08-10T04:59:35.383Z,19.10
2022-08-10T05:02:30.312Z,19.13
2022-08-10T05:04:48.309Z,19.09
2022-08-10T05:07:18.525Z,19.01
2022-08-10T05:10:01.453Z,18.88
2022-08-10T05:12:30.178Z,18.86
2022-08-10T05:14:56.889Z,18.88
2022-08-10T05:17:24.215Z,18.93
2022-08-10T05:20:05.073Z,18.97
2022-08-10T05:22:38.505Z,19.01
2022-08-10T05:25:07.233Z,19.03
2022-08-10T05:27:34.412Z,19.03
2022-08-10T05:30:03.126Z,19.05
2022-08-10T05:32:55.679Z,19.07
2022-08-10T05:35:21.590Z,19.10
2022-08-10T05:38:11.907Z,19.10
2022-08-10T05:40:39.277Z,19.14
2022-08-10T05:43:05.996Z,19.16
2022-08-10T05:45:32.511Z,19.20
2022-08-10T05:48:53.869Z,19.24
2022-08-10T05:50:45.608Z,19.26
2022-08-10T05:54:02.154Z,19.25
2022-08-10T05:55:59.516Z,19.27
2022-08-10T05:58:26.151Z,19.29
2022-08-10T06:00:55.896Z,19.31
2022-08-10T06:03:43.624Z,19.32
2022-08-10T06:06:10.309Z,19.33
2022-08-10T06:08:41.112Z,19.36
2022-08-10T06:12:27.217Z,19.38
2022-08-10T06:14:16.032Z,19.42
2022-08-10T06:16:44.894Z,19.41
2022-08-10T06:19:15.227Z,19.45
2022-08-10T06:22:00.858Z,19.49
2022-08-10T06:24:31.316Z,19.55
2022-08-10T06:26:59.420Z,19.59
2022-08-10T06:29:29.555Z,19.64
2022-08-10T06:31:57.254Z,19.65
2022-08-10T06:34:29.172Z,19.68
2022-08-10T06:36:59.302Z,19.70
2022-08-10T06:39:41.596Z,19.73
2022-08-10T06:42:18.018Z,19.76
2022-08-10T06:45:07.892Z,19.77
2022-08-10T06:47:41.769Z,19.78
2022-08-10T06:50:17.481Z,19.86
2022-08-10T06:53:03.745Z,19.92
2022-08-10T06:55:49.628Z,19.93
2022-08-10T06:58:21.435Z,19.95
2022-08-10T07:00:55.310Z,19.96
2022-08-10T07:03:31.513Z,19.97
2022-08-10T07:06:00.509Z,20.00
2022-08-10T07:08:31.508Z,20.02
2022-08-10T07:10:58.805Z,20.03
2022-08-10T07:14:16.733Z,20.06
2022-08-10T07:16:16.079Z,20.11
2022-08-10T07:18:44.433Z,20.15
2022-08-10T07:21:12.516Z,20.17
2022-08-10T07:23:58.185Z,20.27
2022-08-10T07:26:28.666Z,20.33
2022-08-10T07:28:55.806Z,20.34
2022-08-10T07:31:56.509Z,20.37
2022-08-10T07:34:11.345Z,20.39
2022-08-10T07:36:40.599Z,20.39
2022-08-10T07:39:10.289Z,20.41
2022-08-10T07:41:41.062Z,20.45
2022-08-10T07:44:11.296Z,20.49
2022-08-10T07:46:43.489Z,20.51
2022-08-10T07:49:19.843Z,20.52
2022-08-10T07:51:54.681Z,20.66
2022-08-10T07:54:25.259Z,20.71
2022-08-10T07:56:55.465Z,20.71
2022-08-10T07:59:37.220Z,20.68
2022-08-10T08:02:07.076Z,20.67
2022-08-10T08:04:35.125Z,20.66
2022-08-10T08:07:04.441Z,20.67
2022-08-10T08:09:33.292Z,20.67
2022-08-10T08:12:01.234Z,20.69
2022-08-10T08:14:28.562Z,20.91
2022-08-10T08:16:56.332Z,21.03
2022-08-10T08:19:32.816Z,21.12
2022-08-10T08:24:08.802Z,21.18
2022-08-10T08:24:54.904Z,21.20
2022-08-10T08:27:23.447Z,21.58
2022-08-10T08:29:51.911Z,21.55
2022-08-10T08:32:31.127Z,21.42
2022-08-10T08:35:13.109Z,21.53
2022-08-10T08:38:28.895Z,21.50
2022-08-10T08:40:33.460Z,21.48
2022-08-10T08:43:32.147Z,21.42
2022-08-10T08:46:41.471Z,21.83
2022-08-10T08:50:07.426Z,22.42
2022-08-10T08:52:42.926Z,22.52
2022-08-10T08:56:03.672Z,22.48
2022-08-10T08:58:56.882Z,22.55
2022-08-10T09:01:41.297Z,22.38
2022-08-10T09:04:43.434Z,22.27
2022-08-10T09:08:00.164Z,22.46
2022-08-10T09:11:00.206Z,22.95
2022-08-10T09:13:54.514Z,22.94
2022-08-10T09:17:01.136Z,22.98
2022-08-10T09:19:47.168Z,22.88
2022-08-10T09:22:35.727Z,22.72
2022-08-10T09:25:26.061Z,22.62
2022-08-10T09:28:11.508Z,22.86
2022-08-10T09:31:21.324Z,22.84
2022-08-10T09:36:23.504Z,22.83
2022-08-10T09:37:20.201Z,22.91
2022-08-10T09:40:12.382Z,22.72
2022-08-10T09:43:25.819Z,22.87
2022-08-10T09:46:02.990Z,22.86
2022-08-10T09:48:45.721Z,22.83
2022-08-10T09:51:49.178Z,22.87
2022-08-10T09:54:22.182Z,22.81
2022-08-10T09:57:11.939Z,22.88
2022-08-10T10:00:25.979Z,23.03
2022-08-10T10:03:16.971Z,23.39
2022-08-10T10:05:51.230Z,23.90
2022-08-10T10:08:21.903Z,23.87
2022-08-10T10:11:02.662Z,23.88
2022-08-10T10:14:02.195Z,23.65
2022-08-10T10:16:48.929Z,23.51
2022-08-10T10:19:43.221Z,23.56
2022-08-10T10:22:28.475Z,23.78
2022-08-10T10:25:20.015Z,23.88
2022-08-10T10:28:23.012Z,23.61
2022-08-10T10:31:01.326Z,23.62
2022-08-10T10:33:54.415Z,23.60
2022-08-10T10:36:22.095Z,23.63
2022-08-10T10:38:49.817Z,23.71
2022-08-10T10:41:31.278Z,23.74
2022-08-10T10:44:21.670Z,23.96
2022-08-10T10:47:07.846Z,24.57
2022-08-10T10:49:46.354Z,24.45
2022-08-10T10:52:37.874Z,24.23
2022-08-10T10:55:30.882Z,23.99
2022-08-10T10:58:20.151Z,24.01
2022-08-10T11:01:22.367Z,24.22
2022-08-10T11:04:07.674Z,24.24
2022-08-10T11:06:48.186Z,24.13
2022-08-10T11:10:05.528Z,24.89
2022-08-10T11:12:29.369Z,24.74
2022-08-10T11:15:09.689Z,24.47
2022-08-10T11:17:46.792Z,24.30
2022-08-10T11:20:22.409Z,24.36
2022-08-10T11:23:20.274Z,24.34
2022-08-10T11:25:57.862Z,24.30
2022-08-10T11:28:37.358Z,24.20
2022-08-10T11:31:15.889Z,24.28
2022-08-10T11:34:48.892Z,24.36
2022-08-10T11:36:59.321Z,24.47
2022-08-10T11:39:48.878Z,24.50
2022-08-10T11:42:31.605Z,24.80
2022-08-10T11:45:25.448Z,24.66
2022-08-10T11:47:56.476Z,24.50
2022-08-10T11:50:28.475Z,24.80
2022-08-10T11:53:15.964Z,25.03
2022-08-10T11:55:49.253Z,25.15
2022-08-10T11:58:36.379Z,25.26
2022-08-10T12:01:06.523Z,25.32
2022-08-10T12:03:36.085Z,25.25
2022-08-10T12:06:06.097Z,25.49
2022-08-10T12:10:02.166Z,25.54
2022-08-10T12:11:26.774Z,25.48
2022-08-10T12:14:42.915Z,25.52
2022-08-10T12:17:15.879Z,25.91
2022-08-10T12:20:01.567Z,25.98
2022-08-10T12:22:41.344Z,26.18
2022-08-10T12:25:17.865Z,26.58
2022-08-10T12:28:09.988Z,27.29
2022-08-10T12:30:42.140Z,27.63
2022-08-10T12:33:21.177Z,27.84
2022-08-10T12:36:18.449Z,28.15
2022-08-10T12:39:18.953Z,28.36
2022-08-10T12:41:45.709Z,28.56
2022-08-10T12:44:18.224Z,28.72
2022-08-10T12:46:56.924Z,28.86
2022-08-10T12:49:32.542Z,28.98
2022-08-10T12:52:23.628Z,29.14
2022-08-10T12:54:53.665Z,29.27
2022-08-10T12:57:24.595Z,29.35
2022-08-10T13:00:04.838Z,29.16
2022-08-10T13:02:34.754Z,29.30
2022-08-10T13:05:05.141Z,29.61
2022-08-10T13:08:24.579Z,29.62
2022-08-10T13:10:23.090Z,29.73
2022-08-10T13:12:54.253Z,29.83
2022-08-10T13:15:49.694Z,29.79
2022-08-10T13:18:25.063Z,29.88
2022-08-10T13:20:54.886Z,29.86
2022-08-10T13:23:24.925Z,29.81
2022-08-10T13:25:54.930Z,29.81
2022-08-10T13:28:37.549Z,29.94
2022-08-10T13:31:16.724Z,29.90
2022-08-10T13:34:39.510Z,29.77
2022-08-10T13:36:46.326Z,29.89
2022-08-10T13:39:14.558Z,29.83
2022-08-10T13:41:44.150Z,29.72
2022-08-10T13:44:14.787Z,29.49
2022-08-10T13:46:49.860Z,29.49
2022-08-10T13:49:19.035Z,29.42
2022-08-10T13:51:54.278Z,29.35
2022-08-10T13:54:39.126Z,29.44
2022-08-10T13:57:06.785Z,29.44
2022-08-10T14:00:34.568Z,29.28
2022-08-10T14:02:29.868Z,29.17
2022-08-10T14:04:58.603Z,29.10
2022-08-10T14:07:26.801Z,28.99
2022-08-10T14:09:59.349Z,28.81
2022-08-10T14:12:32.178Z,28.76
2022-08-10T14:15:03.122Z,28.80
2022-08-10T14:17:31.144Z,28.69
2022-08-10T14:19:59.692Z,28.64
2022-08-10T14:22:33.669Z,28.73
2022-08-10T14:25:27.426Z,28.82
2022-08-10T14:28:03.315Z,28.72
2022-08-10T14:30:33.379Z,28.59
2022-08-10T14:33:04.354Z,28.56
2022-08-10T14:36:18.940Z,28.50
2022-08-10T14:38:25.416Z,28.35
2022-08-10T14:40:55.298Z,28.34
2022-08-10T14:43:39.269Z,28.34
2022-08-10T14:46:11.107Z,28.37
2022-08-10T14:48:43.491Z,28.37
2022-08-10T14:51:12.764Z,28.35
2022-08-10T14:53:43.837Z,28.33
2022-08-10T14:56:17.714Z,28.29
2022-08-10T14:58:59.306Z,28.33
2022-08-10T15:02:01.514Z,28.35
2022-08-10T15:04:24.664Z,28.38
2022-08-10T15:06:55.938Z,28.27
2022-08-10T15:09:25.384Z,28.36
2022-08-10T15:12:13.572Z,28.36
2022-08-10T15:14:45.710Z,28.29
2022-08-10T15:17:17.179Z,28.25
2022-08-10T15:20:02.124Z,28.37
2022-08-10T15:22:46.680Z,28.35
2022-08-10T15:25:18.032Z,28.42
2022-08-10T15:27:55.064Z,28.38
2022-08-10T15:30:29.795Z,28.36
2022-08-10T15:33:21.230Z,28.40
2022-08-10T15:36:24.668Z,28.38
2022-08-10T15:38:59.184Z,28.37
2022-08-10T15:41:59.366Z,28.44
2022-08-10T15:44:38.406Z,28.43
2022-08-10T15:47:08.806Z,28.53
2022-08-10T15:49:45.464Z,28.53
2022-08-10T15:53:01.678Z,28.52
2022-08-10T15:55:45.639Z,28.53
2022-08-10T15:58:37.681Z,28.58
2022-08-10T16:02:12.567Z,28.65
2022-08-10T16:04:47.720Z,28.69
2022-08-10T16:07:21.818Z,28.75
2022-08-10T16:10:24.332Z,28.75
2022-08-10T16:12:59.227Z,28.78
2022-08-10T16:15:28.332Z,28.82
2022-08-10T16:18:00.643Z,28.85
2022-08-10T16:20:32.190Z,28.84
2022-08-10T16:23:02.649Z,28.90
2022-08-10T16:25:47.842Z,28.92
2022-08-10T16:28:20.021Z,28.94
2022-08-10T16:30:54.443Z,29.02
2022-08-10T16:33:53.697Z,29.04
2022-08-10T16:36:17.006Z,29.08
2022-08-10T16:38:46.692Z,29.10
2022-08-10T16:41:20.947Z,29.11
2022-08-10T16:44:02.245Z,29.18
2022-08-10T16:46:29.732Z,29.25
2022-08-10T16:48:58.156Z,29.24
2022-08-10T16:51:25.615Z,29.28
2022-08-10T16:53:52.917Z,29.31
2022-08-10T16:56:32.556Z,29.24
2022-08-10T16:59:02.598Z,29.27
2022-08-10T17:01:36.658Z,29.29
2022-08-10T17:04:09.936Z,29.23
2022-08-10T17:06:58.771Z,29.16
2022-08-10T17:09:28.914Z,29.16
2022-08-10T17:11:58.163Z,29.21
2022-08-10T17:14:27.660Z,29.17
2022-08-10T17:17:00.231Z,29.18
2022-08-10T17:19:29.769Z,29.18
2022-08-10T17:21:59.376Z,29.17
2022-08-10T17:24:33.122Z,29.13
2022-08-10T17:28:04.385Z,29.11
2022-08-10T17:30:04.311Z,29.07
2022-08-10T17:32:53.715Z,29.04
2022-08-10T17:35:23.961Z,28.97
2022-08-10T17:38:02.172Z,28.96
2022-08-10T17:40:30.626Z,28.90
2022-08-10T17:42:59.204Z,28.85
2022-08-10T17:45:47.437Z,28.77
2022-08-10T17:48:17.973Z,28.66
2022-08-10T17:50:50.122Z,28.57
2022-08-10T17:53:24.941Z,28.50
2022-08-10T17:55:57.331Z,28.39
2022-08-10T17:58:27.705Z,28.33
2022-08-10T18:01:41.812Z,28.24
2022-08-10T18:03:52.843Z,28.17
2022-08-10T18:06:20.571Z,28.08
2022-08-10T18:33:28.803Z,27.30
2022-08-10T18:35:56.385Z,27.24
2022-08-10T18:38:25.857Z,27.21
2022-08-10T18:41:07.148Z,27.13
2022-08-10T18:44:07.590Z,27.03
2022-08-10T18:46:59.956Z,26.96
2022-08-10T18:49:34.076Z,26.89
2022-08-10T18:52:04.677Z,26.82
2022-08-10T18:54:44.270Z,26.76
2022-08-10T18:57:35.835Z,26.69
2022-08-10T19:00:17.821Z,26.60
2022-08-10T19:02:50.475Z,26.57
2022-08-10T19:05:35.191Z,26.51
2022-08-10T19:08:49.583Z,26.43
2022-08-10T19:11:53.629Z,26.34
2022-08-10T19:14:30.412Z,26.31
2022-08-10T19:16:59.643Z,26.23
2022-08-10T19:19:33.993Z,26.18
2022-08-10T19:22:37.851Z,26.13
2022-08-10T19:26:43.302Z,26.11
2022-08-10T19:28:16.057Z,26.03
2022-08-10T19:30:51.947Z,26.00
2022-08-10T19:34:11.811Z,25.97
2022-08-10T19:36:55.116Z,25.90
2022-08-10T19:39:28.691Z,25.82
2022-08-10T19:42:11.304Z,25.81
2022-08-10T19:44:51.164Z,25.77
2022-08-10T19:47:17.577Z,25.71
2022-08-10T19:49:55.268Z,25.65
2022-08-10T19:52:49.545Z,25.60
2022-08-10T19:55:43.383Z,25.54
2022-08-10T19:58:26.283Z,25.52
2022-08-10T20:01:03.197Z,25.50
2022-08-10T20:04:29.432Z,25.44
2022-08-10T20:07:19.614Z,25.37
2022-08-10T20:10:00.227Z,25.35
2022-08-10T20:12:51.982Z,25.30
2022-08-10T20:15:31.757Z,25.30
2022-08-10T20:18:24.387Z,25.24
2022-08-10T20:21:03.375Z,25.20
2022-08-10T20:23:35.408Z,25.15
2022-08-10T20:26:09.388Z,25.12
2022-08-10T20:29:03.980Z,25.08
2022-08-10T20:31:41.401Z,25.03
2022-08-10T20:34:23.037Z,24.98
2022-08-10T20:37:06.019Z,24.95
2022-08-10T20:39:56.740Z,24.92
2022-08-10T20:42:32.658Z,24.90
2022-08-10T20:45:07.165Z,24.88
2022-08-10T20:47:55.209Z,24.86
2022-08-10T20:50:35.016Z,24.84
2022-08-10T20:53:08.663Z,24.79
2022-08-10T20:55:54.353Z,24.75
2022-08-10T20:58:37.492Z,24.73
2022-08-10T21:01:12.950Z,24.70
2022-08-10T21:04:13.239Z,24.66
2022-08-10T21:07:28.440Z,24.63
2022-08-10T21:10:23.506Z,24.57
2022-08-10T21:13:16.815Z,24.53
2022-08-10T21:15:57.871Z,24.50
2022-08-10T21:18:45.711Z,24.47
2022-08-10T21:21:41.467Z,24.46
2022-08-10T21:24:20.035Z,24.45
2022-08-10T21:27:33.374Z,24.41
2022-08-10T21:29:59.960Z,24.36
2022-08-10T21:32:29.018Z,24.33
2022-08-10T21:35:01.996Z,24.30
2022-08-10T21:37:56.855Z,24.25
2022-08-10T21:41:18.603Z,24.21
2022-08-10T21:44:09.195Z,24.18
2022-08-10T21:47:40.047Z,24.14
2022-08-10T21:50:27.636Z,24.14
2022-08-10T21:54:03.069Z,24.09
2022-08-10T21:56:59.573Z,24.05
2022-08-10T21:59:50.995Z,23.96
2022-08-10T22:02:50.161Z,23.96
2022-08-10T22:05:42.972Z,23.94
2022-08-10T22:08:32.111Z,23.90
2022-08-10T22:11:20.144Z,23.84
2022-08-10T22:14:09.496Z,23.84
2022-08-10T22:18:01.263Z,23.82
2022-08-10T22:20:28.293Z,23.80
2022-08-10T22:23:45.575Z,23.76
2022-08-10T22:27:06.285Z,23.69
2022-08-10T22:29:59.732Z,23.67
2022-08-10T22:32:58.533Z,23.63
2022-08-10T22:35:59.065Z,23.62
2022-08-10T22:38:59.127Z,23.58
2022-08-10T22:42:09.860Z,23.53
2022-08-10T22:45:02.369Z,23.51
2022-08-10T22:47:50.880Z,23.49
2022-08-10T22:50:28.328Z,23.46
2022-08-10T22:53:04.663Z,23.43
2022-08-10T22:55:55.090Z,23.40
2022-08-10T22:58:39.971Z,23.36
2022-08-10T23:01:13.069Z,23.31
2022-08-10T23:03:51.745Z,23.31
2022-08-10T23:06:21.118Z,23.23
2022-08-10T23:08:52.826Z,23.18
2022-08-10T23:11:26.311Z,23.14
2022-08-10T23:14:00.059Z,23.11
2022-08-10T23:16:47.609Z,23.09
2022-08-10T23:19:39.457Z,23.05
2022-08-10T23:22:09.743Z,23.01
2022-08-10T23:24:42.954Z,22.96
2022-08-10T23:27:13.017Z,22.96
2022-08-10T23:30:10.134Z,22.94
2022-08-10T23:32:40.783Z,22.87
2022-08-10T23:36:30.210Z,22.87
2022-08-10T23:38:04.841Z,22.80
2022-08-10T23:40:33.046Z,22.77
2022-08-10T23:43:00.312Z,22.71
2022-08-10T23:45:28.871Z,22.68
2022-08-10T23:48:18.978Z,22.63
2022-08-10T23:50:53.347Z,22.60
2022-08-10T23:53:28.818Z,22.55
2022-08-10T23:56:07.783Z,22.48
2022-08-10T23:58:37.724Z,22.43
